Time;durP1;ratioP1;P1;durP2;ratioP2;P2;SDS_P1;SDS_P2;PMS_P1;PMS_P2;Temp;Humidity;BMP_temperature;BMP_pressure;BME280_temperature;BME280_humidity;BME280_pressure;Samples;Min_cycle;Max_cycle;Signal;HPM_P1;HPM_P2
2022/10/03 00:01:48;;;;;;;0.20;0.20;;;;;;;8.55;100.00;98210.77;1711497;79;21853;-49
2022/10/03 00:04:32;;;;;;;0.45;0.23;;;;;;;8.56;100.00;98213.83;1696029;82;21422;-50
2022/10/03 00:07:47;;;;;;;0.93;0.30;;;;;;;8.56;100.00;98213.83;1698242;82;21440;-50
2022/10/03 00:10:55;;;;;;;0.28;0.20;;;;;;;8.58;100.00;98208.38;1709254;82;21099;-49
2022/10/03 00:13:30;;;;;;;0.30;0.30;;;;;;;8.61;100.00;98204.13;1762662;79;21104;-50
2022/10/03 00:16:21;;;;;;;1.22;0.30;;;;;;;8.61;100.00;98199.63;1760716;79;21057;-50
2022/10/03 00:19:28;;;;;;;0.20;0.20;;;;;;;8.61;100.00;98198.77;1712287;80;21128;-49
2022/10/03 00:22:25;;;;;;;0.30;0.20;;;;;;;8.62;100.00;98200.50;1756104;80;21038;-50
2022/10/03 00:25:37;;;;;;;0.82;0.30;;;;;;;8.61;100.00;98195.61;1734259;79;21120;-50
2022/10/03 00:28:48;;;;;;;0.30;0.30;;;;;;;8.60;100.00;98192.54;1759116;80;21084;-50
2022/10/03 00:31:26;;;;;;;0.40;0.30;;;;;;;8.58;100.00;98182.42;1682897;80;21874;-50
2022/10/03 00:34:33;;;;;;;0.95;0.30;;;;;;;8.54;100.00;98192.09;1764778;79;21054;-49
2022/10/03 00:37:38;;;;;;;0.40;0.30;;;;;;;8.53;100.00;98180.97;1765150;79;20990;-50
2022/10/03 00:40:27;;;;;;;;;;;;;;;8.53;100.00;98179.16;1769040;79;21077;-49
2022/10/03 00:43:10;;;;;;;1.12;0.30;;;;;;;8.54;100.00;98180.02;1762522;80;21135;-50
2022/10/03 00:45:46;;;;;;;0.30;0.30;;;;;;;8.53;100.00;98177.81;1767417;79;23229;-50
2022/10/03 00:48:41;;;;;;;0.55;0.45;;;;;;;8.57;100.00;98173.98;1707063;82;21153;-50
2022/10/03 00:51:31;;;;;;;0.45;0.30;;;;;;;8.59;100.00;98173.38;1765904;79;21090;-51
2022/10/03 00:54:35;;;;;;;0.70;0.40;;;;;;;8.61;100.00;98173.29;1771219;79;21189;-49
2022/10/03 00:57:36;;;;;;;1.12;0.40;;;;;;;8.61;100.00;98171.47;1771550;79;21097;-50
2022/10/03 01:00:26;;;;;;;0.60;0.40;;;;;;;8.60;100.00;98172.91;1767578;79;21967;-50
2022/10/03 01:03:04;;;;;;;3.77;0.40;;;;;;;8.58;100.00;98170.35;1767872;79;21068;-49
2022/10/03 01:05:49;;;;;;;0.45;0.33;;;;;;;8.55;100.00;98163.83;1766801;79;21013;-50
2022/10/03 01:08:38;;;;;;;0.45;0.45;;;;;;;8.56;100.00;98162.02;1771579;79;21593;-50
2022/10/03 01:11:44;;;;;;;0.30;0.30;;;;;;;8.57;100.00;98163.26;1767102;79;21068;-50
2022/10/03 01:14:41;;;;;;;0.40;0.40;;;;;;;8.59;100.00;98166.67;1770680;79;22513;-51
2022/10/03 01:17:19;;;;;;;0.40;0.40;;;;;;;8.61;100.00;98163.90;1765455;79;21059;-51
2022/10/03 01:20:08;;;;;;;1.15;0.30;;;;;;;8.63;100.00;98157.48;1726407;80;21106;-51
2022/10/03 01:23:06;;;;;;;0.60;0.40;;;;;;;8.62;100.00;98151.73;1767509;79;21544;-50
2022/10/03 01:25:43;;;;;;;0.50;0.40;;;;;;;8.62;100.00;98150.40;1766459;79;21088;-50
2022/10/03 01:31:44;;;;;;;0.40;0.30;;;;;;;8.65;100.00;98156.05;1766327;79;21061;-50
2022/10/03 01:34:49;;;;;;;0.40;0.40;;;;;;;8.66;100.00;98160.45;1763997;79;21041;-50
2022/10/03 01:37:40;;;;;;;3.08;0.40;;;;;;;8.67;100.00;98163.52;1761193;80;21092;-51
2022/10/03 01:40:21;;;;;;;2.37;0.47;;;;;;;8.71;100.00;98152.95;1757357;79;21152;-51
2022/10/03 01:43:21;;;;;;;0.40;0.40;;;;;;;8.73;100.00;98152.38;1748296;79;21540;-50
2022/10/03 01:46:08;;;;;;;0.50;0.50;;;;;;;8.74;100.00;98151.42;1763403;80;21478;-50
2022/10/03 01:49:16;;;;;;;0.50;0.50;;;;;;;8.78;100.00;98157.42;1760919;79;21121;-50
2022/10/03 01:52:20;;;;;;;0.90;0.90;;;;;;;8.80;100.00;98159.05;1760546;79;21585;-50
2022/10/03 01:55:00;;;;;;;0.80;0.60;;;;;;;8.82;100.00;98160.30;1760341;80;21029;-50
2022/10/03 01:57:41;;;;;;;1.52;0.50;;;;;;;8.81;100.00;98162.13;1759873;80;21217;-50
2022/10/03 02:00:24;;;;;;;1.55;0.60;;;;;;;8.83;100.00;98157.52;1762644;79;21049;-48
2022/10/03 02:03:09;;;;;;;0.80;0.50;;;;;;;8.83;100.00;98156.19;1763855;79;20967;-48
2022/10/03 02:06:05;;;;;;;0.60;0.60;;;;;;;8.84;100.00;98155.70;1761036;80;21041;-45
2022/10/03 02:08:52;;;;;;;0.68;0.60;;;;;;;8.83;100.00;98155.32;1765161;79;21039;-50
2022/10/03 02:11:43;;;;;;;0.70;0.60;;;;;;;8.83;100.00;98162.89;1764991;80;21827;-46
2022/10/03 02:14:32;;;;;;;0.75;0.60;;;;;;;8.85;100.00;98159.59;1754245;79;20967;-47
2022/10/03 02:17:04;;;;;;;0.93;0.57;;;;;;;8.87;100.00;98157.69;1719777;79;20970;-46
2022/10/03 02:19:47;;;;;;;0.60;0.50;;;;;;;8.90;100.00;98152.60;1727043;81;20991;-50
2022/10/03 02:22:17;;;;;;;1.17;0.70;;;;;;;8.90;100.00;98140.05;1752751;80;21070;-50
2022/10/03 02:24:52;;;;;;;0.65;0.55;;;;;;;8.90;100.00;98137.36;1762147;79;21890;-46
2022/10/03 02:27:59;;;;;;;1.57;0.50;;;;;;;8.91;100.00;98143.11;1764225;80;21801;-46
2022/10/03 02:31:15;;;;;;;2.25;0.60;;;;;;;8.93;100.00;98145.19;1725563;82;20989;-46
2022/10/03 02:33:55;;;;;;;1.50;0.60;;;;;;;8.91;100.00;98147.62;1699141;80;21279;-46
2022/10/03 02:36:45;;;;;;;0.70;0.60;;;;;;;8.88;100.00;98150.02;1762446;79;21085;-47
2022/10/03 02:39:22;;;;;;;0.70;0.60;;;;;;;8.88;100.00;98143.30;1724857;81;21861;-49
2022/10/03 02:42:24;;;;;;;0.50;0.50;;;;;;;8.89;100.00;98142.34;1762107;79;21098;-47
2022/10/03 02:45:15;;;;;;;0.50;0.47;;;;;;;8.90;100.00;98148.09;1762691;80;21070;-47
2022/10/03 02:47:50;;;;;;;0.45;0.40;;;;;;;8.89;100.00;98149.05;1721654;80;21102;-46
2022/10/03 02:53:12;;;;;;;0.53;0.40;;;;;;;8.91;100.00;98137.75;1870772;75;21952;-46
2022/10/03 02:56:31;;;;;;;1.95;0.40;;;;;;;8.87;100.00;98142.06;1834633;75;21013;-46
2022/10/03 02:59:35;;;;;;;0.82;0.40;;;;;;;8.84;100.00;98142.28;1813636;77;21963;-47
2022/10/03 03:02:25;;;;;;;0.75;0.47;;;;;;;8.82;100.00;98142.38;1811136;77;21024;-46
2022/10/03 03:05:03;;;;;;;2.45;0.47;;;;;;;8.80;100.00;98138.94;1812286;77;21048;-46
2022/10/03 03:07:47;;;;;;;0.45;0.40;;;;;;;8.78;100.00;98142.67;1741891;80;21070;-47
2022/10/03 03:10:47;;;;;;;0.40;0.40;;;;;;;8.76;100.00;98145.48;1776088;78;21013;-46
2022/10/03 03:13:54;;;;;;;0.37;0.23;;;;;;;8.77;100.00;98143.15;1776831;79;21851;-49
2022/10/03 03:16:56;;;;;;;0.70;0.40;;;;;;;8.80;100.00;98152.34;1780459;79;21025;-48
2022/10/03 03:19:49;;;;;;;1.25;0.30;;;;;;;8.81;100.00;98142.00;1771059;79;21073;-47
2022/10/03 03:22:24;;;;;;;0.60;0.40;;;;;;;8.82;100.00;98145.06;1742004;79;21123;-45
2022/10/03 03:25:08;;;;;;;0.60;0.33;;;;;;;8.81;100.00;98133.09;1774722;78;21387;-50
2022/10/03 03:28:24;;;;;;;0.60;0.50;;;;;;;8.83;100.00;98129.83;1763439;79;22857;-47
2022/10/03 03:31:05;;;;;;;0.40;0.40;;;;;;;8.83;100.00;98130.69;1759207;79;21735;-49
2022/10/03 03:34:12;;;;;;;1.12;0.40;;;;;;;8.84;100.00;98131.55;1777698;78;21036;-46
2022/10/03 03:37:08;;;;;;;1.00;0.50;;;;;;;8.83;100.00;98130.69;1688370;83;21073;-46
2022/10/03 03:39:41;;;;;;;0.90;0.57;;;;;;;8.85;100.00;98134.59;1680108;83;21100;-48
2022/10/03 03:42:20;;;;;;;2.67;0.55;;;;;;;8.84;100.00;98128.39;1724994;81;21753;-47
2022/10/03 03:45:21;;;;;;;0.40;0.40;;;;;;;8.83;100.00;98129.35;1754422;80;21358;-48
2022/10/03 03:48:24;;;;;;;0.70;0.60;;;;;;;8.81;100.00;98135.77;1755259;80;21048;-46
2022/10/03 03:51:11;;;;;;;0.80;0.55;;;;;;;8.78;100.00;98138.17;1753308;80;21645;-46
2022/10/03 03:53:49;;;;;;;0.88;0.60;;;;;;;8.77;100.00;98123.51;1712203;80;21044;-48
2022/10/03 03:56:38;;;;;;;0.60;0.50;;;;;;;8.76;100.00;98128.05;1783103;79;22009;-48
2022/10/03 03:59:33;;;;;;;0.68;0.60;;;;;;;8.73;100.00;98136.28;1779331;78;21076;-50
2022/10/03 04:02:08;;;;;;;1.00;0.70;;;;;;;8.73;100.00;98132.26;1780180;78;21088;-50
2022/10/03 04:05:00;;;;;;;1.30;0.60;;;;;;;8.73;100.00;98117.51;1767775;79;21511;-48
2022/10/03 04:07:48;;;;;;;1.22;0.50;;;;;;;8.73;100.00;98122.88;1777750;78;21049;-48
2022/10/03 04:10:58;;;;;;;2.45;0.60;;;;;;;8.73;100.00;98126.42;1764080;79;22723;-48
2022/10/03 04:13:55;;;;;;;0.70;0.60;;;;;;;8.76;100.00;98124.50;1771548;79;21128;-49
2022/10/03 04:19:47;;;;;;;0.65;0.55;;;;;;;8.78;100.00;98123.89;1759144;79;21037;-48
2022/10/03 04:22:35;;;;;;;1.02;0.60;;;;;;;8.77;100.00;98131.56;1765827;79;21530;-47
2022/10/03 04:25:37;;;;;;;1.40;0.60;;;;;;;8.77;100.00;98124.38;1744826;80;21875;-51
2022/10/03 04:28:33;;;;;;;0.78;0.53;;;;;;;8.79;100.00;98138.55;1785839;78;22564;-47
2022/10/03 04:31:16;;;;;;;1.47;0.70;;;;;;;8.81;100.00;98125.04;1723141;81;21532;-47
2022/10/03 04:33:57;;;;;;;1.77;0.62;;;;;;;8.82;100.00;98120.06;1756001;80;21052;-46
2022/10/03 04:37:07;;;;;;;0.70;0.70;;;;;;;8.83;100.00;98128.48;1751289;79;21088;-48
2022/10/03 04:39:53;;;;;;;1.55;0.60;;;;;;;8.86;100.00;98121.08;1716890;80;21913;-46
2022/10/03 04:42:51;;;;;;;0.60;0.60;;;;;;;8.89;100.00;98112.83;1752834;80;21057;-47
2022/10/03 04:45:34;;;;;;;0.75;0.60;;;;;;;8.93;100.00;98100.08;1754995;80;22142;-47
2022/10/03 04:48:18;;;;;;;0.50;0.50;;;;;;;8.95;100.00;98104.84;1757417;80;20975;-47
2022/10/03 04:51:16;;;;;;;0.60;0.50;;;;;;;8.95;100.00;98100.33;1755145;80;21438;-48
2022/10/03 04:54:01;;;;;;;0.50;0.50;;;;;;;8.99;100.00;98094.29;1764356;78;21049;-48
2022/10/03 04:56:46;;;;;;;;;;;;;;;9.02;100.00;98094.92;1775398;78;20983;-48
2022/10/03 04:59:42;;;;;;;0.70;0.47;;;;;;;9.07;100.00;98106.70;1780565;78;20568;-48
2022/10/03 05:02:43;;;;;;;0.55;0.40;;;;;;;9.09;100.00;98092.23;1789589;78;20958;-47
2022/10/03 05:05:48;;;;;;;1.12;0.40;;;;;;;9.14;100.00;98080.30;1773682;79;20992;-47
2022/10/03 05:08:23;;;;;;;1.10;0.40;;;;;;;9.18;100.00;98084.02;1757248;79;21795;-47
2022/10/03 05:11:14;;;;;;;1.00;0.40;;;;;;;9.23;100.00;98077.84;1760431;79;21076;-46
2022/10/03 05:13:59;;;;;;;0.50;0.30;;;;;;;9.28;100.00;98081.53;1761752;79;20986;-50
2022/10/03 05:16:53;;;;;;;0.78;0.30;;;;;;;9.34;100.00;98077.10;1754146;79;21024;-47
2022/10/03 05:19:44;;;;;;;0.70;0.30;;;;;;;9.41;100.00;98083.76;1764417;79;21456;-48
2022/10/03 05:22:42;;;;;;;0.68;0.30;;;;;;;9.47;100.00;98081.98;1755823;80;21432;-46
2022/10/03 05:25:19;;;;;;;5.53;0.40;;;;;;;9.55;100.00;98089.02;1757451;80;21061;-48
2022/10/03 05:28:08;;;;;;;1.55;0.30;;;;;;;9.63;100.00;98100.56;1756320;79;22617;-46
2022/10/03 05:30:43;;;;;;;2.25;0.40;;;;;;;9.69;100.00;98102.35;1756006;79;21342;-50
2022/10/03 05:33:45;;;;;;;2.87;0.40;;;;;;;9.75;100.00;98098.36;1758820;79;21468;-49
2022/10/03 05:36:35;;;;;;;1.12;0.30;;;;;;;9.82;100.00;98109.05;1763215;79;21849;-49
2022/10/03 05:39:45;;;;;;;1.02;0.50;;;;;;;9.88;100.00;98103.22;1774063;79;21384;-48
2022/10/03 05:46:01;;;;;;;1.40;0.20;;;;;;;10.03;100.00;98095.43;1785132;78;22567;-45
2022/10/03 05:48:51;;;;;;;3.50;0.30;;;;;;;10.08;100.00;98095.08;1738313;80;21041;-46
2022/10/03 05:51:40;;;;;;;1.27;0.30;;;;;;;10.13;100.00;98111.24;1704445;81;21782;-47
2022/10/03 05:54:46;;;;;;;0.68;0.50;;;;;;;10.15;100.00;98099.04;1721985;81;21035;-46
2022/10/03 05:57:33;;;;;;;1.90;0.33;;;;;;;10.19;100.00;98102.79;1714985;81;21064;-49
2022/10/03 06:00:21;;;;;;;1.70;0.30;;;;;;;10.24;100.00;98107.81;1675555;83;21514;-47
2022/10/03 06:03:11;;;;;;;1.42;0.30;;;;;;;10.26;100.00;98111.74;1687481;82;21171;-47
2022/10/03 06:06:01;;;;;;;0.82;0.35;;;;;;;10.27;100.00;98111.64;1688839;82;21770;-49
2022/10/03 06:08:40;;;;;;;1.98;0.30;;;;;;;10.26;100.00;98113.95;1688914;82;21092;-46
2022/10/03 06:11:27;;;;;;;0.72;0.30;;;;;;;10.31;100.00;98118.98;1687490;82;21144;-47
2022/10/03 06:14:28;;;;;;;1.27;0.30;;;;;;;10.35;100.00;98119.14;1691885;82;21561;-47
2022/10/03 06:17:33;;;;;;;0.88;0.20;;;;;;;10.39;100.00;98114.76;1685449;82;21076;-46
2022/10/03 06:20:21;;;;;;;0.93;0.20;;;;;;;10.47;100.00;98132.54;1691236;82;21837;-45
2022/10/03 06:23:18;;;;;;;0.78;0.20;;;;;;;10.55;100.00;98127.94;1692437;82;21705;-46
2022/10/03 06:26:07;;;;;;;1.05;0.28;;;;;;;10.64;100.00;98127.26;1689071;82;21013;-46
2022/10/03 06:28:57;;;;;;;1.22;0.30;;;;;;;10.72;100.00;98133.45;1620163;82;21076;-46
2022/10/03 06:32:18;;;;;;;0.82;0.20;;;;;;;10.79;100.00;98135.56;1689333;82;21760;-45
2022/10/03 06:35:23;;;;;;;1.30;0.20;;;;;;;10.89;100.00;98129.84;1690381;82;21052;-46
2022/10/03 06:38:22;;;;;;;1.62;0.60;;;;;;;11.00;100.00;98133.08;1687198;82;24536;-49
2022/10/03 06:41:14;;;;;;;0.53;0.30;;;;;;;11.12;100.00;98146.11;1684564;82;21107;-46
2022/10/03 06:44:04;;;;;;;1.32;0.30;;;;;;;11.19;100.00;98152.26;1687607;82;21132;-49
2022/10/03 06:47:10;;;;;;;0.50;0.30;;;;;;;11.27;100.00;98163.79;1675669;83;21415;-46
2022/10/03 06:50:10;;;;;;;2.52;0.25;;;;;;;11.27;100.00;98163.79;1676074;83;22649;-47
2022/10/03 06:52:51;;;;;;;2.77;0.30;;;;;;;11.32;100.00;98162.45;1673339;83;21401;-49
2022/10/03 06:55:32;;;;;;;4.05;0.30;;;;;;;11.36;100.00;98167.99;1717901;81;21062;-46
2022/10/03 06:58:34;;;;;;;1.47;0.30;;;;;;;11.36;100.00;98167.99;1700329;81;21517;-46
2022/10/03 07:01:15;;;;;;;1.95;0.30;;;;;;;11.44;100.00;98160.67;1717272;81;21034;-47
2022/10/03 07:04:29;;;;;;;1.15;0.30;;;;;;;11.44;100.00;98160.67;1723779;81;22540;-47
2022/10/03 07:07:23;;;;;;;1.82;0.30;;;;;;;11.48;100.00;98162.16;1719391;81;21564;-46
2022/10/03 07:10:40;;;;;;;0.40;0.20;;;;;;;11.52;100.00;98156.89;1720365;81;21560;-45
2022/10/03 07:13:53;;;;;;;4.83;0.20;;;;;;;11.55;100.00;98167.93;1662928;84;21108;-46
2022/10/03 07:16:45;;;;;;;0.40;0.20;;;;;;;11.58;100.00;98159.59;1713598;81;21117;-46
2022/10/03 07:19:35;;;;;;;4.20;0.30;;;;;;;11.59;100.00;98169.39;1719309;81;22844;-47
2022/10/03 07:22:42;;;;;;;1.92;0.25;;;;;;;11.59;100.00;98168.91;1695243;82;21128;-50
2022/10/03 07:25:42;;;;;;;0.65;0.30;;;;;;;11.58;100.00;98167.19;1711686;81;21522;-48
2022/10/03 07:28:55;;;;;;;0.80;0.35;;;;;;;11.52;100.00;98181.14;1713963;81;21309;-48
2022/10/03 07:31:42;;;;;;;0.50;0.30;;;;;;;11.52;100.00;98181.14;1712716;81;21046;-49
2022/10/03 07:34:53;;;;;;;1.65;0.30;;;;;;;11.48;100.00;98185.06;1706312;81;22029;-50
2022/10/03 07:40:53;;;;;;;1.17;0.30;;;;;;;11.47;100.00;98173.05;1713563;81;21070;-47
2022/10/03 07:43:48;;;;;;;1.40;0.23;;;;;;;11.48;100.00;98172.08;1721727;81;21695;-47
2022/10/03 07:46:37;;;;;;;3.17;0.23;;;;;;;11.54;100.00;98168.42;1679128;82;21042;-46
2022/10/03 07:49:27;;;;;;;3.12;0.20;;;;;;;11.63;100.00;98167.71;1712133;81;21839;-48
2022/10/03 07:52:22;;;;;;;3.30;0.60;;;;;;;11.69;100.00;98165.88;1711456;81;21104;-49
2022/10/03 07:55:24;;;;;;;0.40;0.20;;;;;;;11.77;100.00;98166.66;1713702;81;21057;-49
2022/10/03 07:58:29;;;;;;;2.95;0.20;;;;;;;11.83;100.00;98168.00;1691133;81;21043;-46
2022/10/03 08:01:22;;;;;;;2.83;0.30;;;;;;;11.89;100.00;98159.45;1710012;81;21545;-47
2022/10/03 08:04:19;;;;;;;1.57;0.30;;;;;;;11.97;100.00;98163.27;1719046;81;21881;-46
2022/10/03 08:07:09;;;;;;;0.53;0.30;;;;;;;12.02;100.00;98163.75;1711820;81;20986;-50
2022/10/03 08:10:04;;;;;;;3.70;0.40;;;;;;;12.05;100.00;98174.30;1712986;81;20986;-47
2022/10/03 08:12:54;;;;;;;0.70;0.30;;;;;;;12.08;100.00;98167.30;1718358;81;20985;-48
2022/10/03 08:15:33;;;;;;;1.22;0.28;;;;;;;12.11;100.00;98171.11;1663857;84;21592;-49
2022/10/03 08:18:51;;;;;;;0.62;0.30;;;;;;;12.13;100.00;98173.20;1673225;83;21009;-47
2022/10/03 08:21:35;;;;;;;2.22;0.30;;;;;;;12.19;100.00;98180.43;1674019;83;21065;-50
2022/10/03 08:24:16;;;;;;;0.93;0.20;;;;;;;12.30;100.00;98173.20;1662661;83;21105;-47
2022/10/03 08:26:59;;;;;;;1.00;0.30;;;;;;;12.41;100.00;98188.55;1669978;83;21058;-50
2022/10/03 08:29:48;;;;;;;1.10;0.30;;;;;;;12.48;100.00;98178.48;1639287;84;21066;-48
2022/10/03 08:33:11;;;;;;;0.57;0.30;;;;;;;12.53;100.00;98187.53;1669491;83;21903;-48
2022/10/03 08:36:25;;;;;;;2.90;0.28;;;;;;;12.55;100.00;98189.63;1670534;83;21080;-47
2022/10/03 08:39:03;;;;;;;1.35;0.40;;;;;;;12.52;100.00;98176.38;1670125;83;21750;-50
2022/10/03 08:42:08;;;;;;;1.42;0.30;;;;;;;12.48;100.00;98185.72;1674978;83;21101;-46
2022/10/03 08:45:16;;;;;;;2.37;0.20;;;;;;;12.44;100.00;98189.14;1668957;83;21104;-49
2022/10/03 08:48:03;;;;;;;1.00;0.30;;;;;;;12.41;100.00;98190.75;1669369;83;21694;-45
2022/10/03 08:50:55;;;;;;;1.10;0.30;;;;;;;12.40;100.00;98187.69;1676368;83;21172;-51
2022/10/03 08:53:59;;;;;;;2.33;0.30;;;;;;;12.37;100.00;98192.45;1689462;82;21072;-47
2022/10/03 08:56:52;;;;;;;0.40;0.20;;;;;;;12.33;100.00;98183.77;1697120;82;21443;-50
2022/10/03 09:00:00;;;;;;;0.75;0.30;;;;;;;12.27;100.00;98183.38;1675192;83;21112;-50
2022/10/03 09:02:53;;;;;;;1.27;0.30;;;;;;;12.23;100.00;98190.02;1662921;83;21616;-45
2022/10/03 09:05:59;;;;;;;0.90;0.20;;;;;;;12.19;100.00;98189.38;1686919;82;21122;-48
2022/10/03 09:08:51;;;;;;;0.70;0.33;;;;;;;12.20;100.00;98196.98;1689131;82;21328;-48
2022/10/03 09:11:32;;;;;;;2.52;0.20;;;;;;;12.21;100.00;98192.83;1675592;83;21626;-50
2022/10/03 09:14:28;;;;;;;1.87;0.40;;;;;;;12.24;100.00;98193.94;1677495;83;21109;-46
2022/10/03 09:17:34;;;;;;;2.08;0.30;;;;;;;12.30;100.00;98208.77;1675844;83;21763;-46
2022/10/03 09:20:49;;;;;;;1.20;0.20;;;;;;;12.39;100.00;98200.80;1673728;83;21084;-47
2022/10/03 09:23:30;;;;;;;0.50;0.20;;;;;;;12.48;100.00;98201.91;1659543;84;21593;-47
2022/10/03 09:26:20;;;;;;;0.95;0.30;;;;;;;12.58;100.00;98190.74;1672545;83;21101;-47
2022/10/03 09:29:25;;;;;;;0.40;0.25;;;;;;;12.65;100.00;98198.70;1659997;83;21070;-47
2022/10/03 09:32:23;;;;;;;1.90;0.37;;;;;;;12.72;100.00;98197.70;1682705;83;21950;-47
2022/10/03 09:35:26;;;;;;;2.83;0.35;;;;;;;12.80;100.00;98193.40;1639702;84;21630;-47
2022/10/03 09:38:32;;;;;;;0.47;0.30;;;;;;;12.85;100.00;98188.47;1674689;83;21111;-51
2022/10/03 09:41:30;;;;;;;0.78;0.20;;;;;;;12.95;100.00;98195.81;1694032;82;22345;-50
2022/10/03 09:44:35;;;;;;;1.02;0.20;;;;;;;13.03;100.00;98194.69;1683233;83;21761;-47
2022/10/03 09:47:21;;;;;;;1.10;0.25;;;;;;;13.06;100.00;98191.25;1649123;84;21839;-48
2022/10/03 09:50:18;;;;;;;1.52;0.37;;;;;;;13.11;100.00;98195.77;1636530;85;21458;-48
2022/10/03 09:52:53;;;;;;;1.15;0.30;;;;;;;13.19;100.00;98196.52;1658809;83;21086;-46
2022/10/03 09:56:12;;;;;;;0.60;0.30;;;;;;;13.23;100.00;98201.55;1652780;83;21110;-49
2022/10/03 09:59:04;;;;;;;3.35;0.30;;;;;;;13.29;100.00;98202.02;1690555;82;21048;-50
2022/10/03 10:01:59;;;;;;;0.70;0.20;;;;;;;13.29;100.00;98208.27;1676697;83;21777;-47
2022/10/03 10:04:42;;;;;;;0.90;0.30;;;;;;;13.23;100.00;98220.95;1662519;83;21085;-49
2022/10/03 10:07:58;;;;;;;1.27;0.23;;;;;;;13.18;100.00;98215.09;1688873;82;21116;-50
2022/10/03 10:11:07;;;;;;;0.72;0.30;;;;;;;13.15;100.00;98220.73;1675072;83;21223;-48
2022/10/03 10:14:03;;;;;;;1.55;0.23;;;;;;;13.14;100.00;98222.58;1689535;82;21058;-47
2022/10/03 10:16:39;;;;;;;0.90;0.30;;;;;;;13.12;100.00;98225.85;1679213;83;21773;-52
2022/10/03 10:19:34;;;;;;;3.08;0.20;;;;;;;13.10;100.00;98221.06;1659561;83;21513;-47
2022/10/03 10:22:35;;;;;;;1.92;0.50;;;;;;;13.10;100.00;98226.99;1653010;83;21753;-46
2022/10/03 10:25:23;;;;;;;2.83;0.30;;;;;;;13.08;100.00;98225.76;1661527;84;21600;-46
2022/10/03 10:28:16;;;;;;;2.00;0.30;;;;;;;13.09;100.00;98230.18;1676652;83;22664;-48
2022/10/03 10:31:30;;;;;;;1.27;0.20;;;;;;;13.09;100.00;98227.97;1662728;83;21842;-51
2022/10/03 10:34:35;;;;;;;2.05;0.30;;;;;;;13.06;100.00;98228.21;1689823;82;21060;-51
2022/10/03 10:37:11;;;;;;;;;;;;;;;13.09;100.00;98223.42;1667560;83;21539;-49
2022/10/03 10:40:03;;;;;;;0.40;0.20;;;;;;;13.15;100.00;98216.68;1677468;83;20226;-48
2022/10/03 10:42:47;;;;;;;0.40;0.30;;;;;;;13.19;100.00;98226.23;1681992;83;21105;-48
2022/10/03 10:45:53;;;;;;;0.55;0.20;;;;;;;13.23;100.00;98222.30;1681506;83;22843;-48
2022/10/03 10:48:53;;;;;;;0.70;0.20;;;;;;;13.27;100.00;98216.16;1660626;83;21008;-48
2022/10/03 10:52:10;;;;;;;0.50;0.30;;;;;;;13.32;100.00;98217.48;1677092;83;21037;-50
2022/10/03 10:54:51;;;;;;;1.30;0.30;;;;;;;13.38;100.00;98222.38;1682901;83;21013;-50
2022/10/03 10:58:02;;;;;;;0.62;0.20;;;;;;;13.40;100.00;98223.59;1679822;83;20986;-51
2022/10/03 11:00:47;;;;;;;0.57;0.23;;;;;;;13.41;100.00;98236.98;1700463;82;21824;-50
2022/10/03 11:03:53;;;;;;;2.17;0.30;;;;;;;13.36;100.00;98232.44;1680470;83;29053;-47
2022/10/03 11:06:52;;;;;;;1.47;0.30;;;;;;;13.32;100.00;98232.84;1699818;82;20989;-49
2022/10/03 11:09:34;;;;;;;1.10;0.20;;;;;;;13.32;100.00;98224.24;1683963;83;21451;-48
2022/10/03 11:12:41;;;;;;;2.80;0.25;;;;;;;13.36;100.00;98221.63;1702144;82;20992;-48
2022/10/03 11:15:48;;;;;;;2.33;0.20;;;;;;;13.38;100.00;98239.08;1677479;83;21831;-48
2022/10/03 11:18:31;;;;;;;0.78;0.20;;;;;;;13.33;100.00;98229.16;1673835;83;21783;-49
2022/10/03 11:21:27;;;;;;;1.00;0.30;;;;;;;13.27;100.00;98225.63;1672296;83;21088;-52
2022/10/03 11:24:36;;;;;;;2.33;0.20;;;;;;;13.22;100.00;98225.98;1670014;83;21100;-47
2022/10/03 11:27:41;;;;;;;0.88;0.20;;;;;;;13.20;100.00;98230.66;1697606;82;21040;-51
2022/10/03 11:30:24;;;;;;;0.68;0.20;;;;;;;13.18;100.00;98238.05;1671948;83;21918;-48
2022/10/03 11:33:47;;;;;;;0.30;0.10;;;;;;;13.20;100.00;98234.70;1686734;82;21577;-50
2022/10/03 11:36:42;;;;;;;0.95;0.15;;;;;;;13.21;100.00;98231.88;1680911;83;21064;-47
2022/10/03 11:39:43;;;;;;;0.72;0.20;;;;;;;13.27;100.00;98225.09;1673033;83;21119;-47
2022/10/03 11:42:23;;;;;;;1.45;0.20;;;;;;;13.29;100.00;98233.09;1671545;83;21722;-51
2022/10/03 11:45:01;;;;;;;0.68;0.20;;;;;;;13.29;100.00;98235.30;1675840;83;23301;-50
2022/10/03 11:47:54;;;;;;;0.70;0.20;;;;;;;13.30;100.00;98230.27;1669529;83;21557;-49
2022/10/03 11:50:26;;;;;;;0.55;0.20;;;;;;;13.27;100.00;98226.45;1677613;83;22408;-47
2022/10/03 11:53:10;;;;;;;0.62;0.23;;;;;;;13.25;100.00;98236.06;1700257;82;21555;-47
2022/10/03 11:55:55;;;;;;;1.47;0.20;;;;;;;13.24;100.00;98229.43;1703308;82;21044;-47
2022/10/03 11:58:42;;;;;;;1.87;0.30;;;;;;;13.21;100.00;98232.37;1699976;82;21769;-45
2022/10/03 12:01:30;;;;;;;1.17;0.20;;;;;;;13.20;100.00;98238.76;1671489;83;21088;-47
2022/10/03 12:04:02;;;;;;;1.40;0.20;;;;;;;13.21;100.00;98233.72;1694495;82;21358;-48
2022/10/03 12:10:08;;;;;;;2.87;0.42;;;;;;;13.23;100.00;98234.47;1696771;82;21052;-45
2022/10/03 12:12:44;;;;;;;1.35;0.30;;;;;;;13.24;100.00;98232.13;1663737;82;21843;-50
2022/10/03 12:15:33;;;;;;;0.80;0.20;;;;;;;13.23;100.00;98226.36;1673846;83;21140;-47
2022/10/03 12:18:26;;;;;;;0.42;0.13;;;;;;;13.23;100.00;98233.11;1684669;83;21067;-47
2022/10/03 12:21:18;;;;;;;0.88;0.20;;;;;;;13.21;100.00;98228.32;1668402;83;21424;-47
2022/10/03 12:24:25;;;;;;;1.10;0.28;;;;;;;13.22;100.00;98228.20;1678002;83;21606;-48
2022/10/03 12:27:18;;;;;;;1.37;0.20;;;;;;;13.23;100.00;98226.36;1698620;82;21722;-48
2022/10/03 12:29:50;;;;;;;1.95;0.20;;;;;;;13.26;100.00;98231.52;1676719;83;21081;-48
2022/10/03 12:32:43;;;;;;;1.02;0.20;;;;;;;13.29;100.00;98241.19;1678558;83;21115;-46
2022/10/03 12:35:43;;;;;;;3.77;0.30;;;;;;;13.29;100.00;98233.95;1704359;82;21054;-48
2022/10/03 12:38:26;;;;;;;0.80;0.20;;;;;;;13.28;100.00;98231.36;1701931;82;21118;-47
2022/10/03 12:41:19;;;;;;;1.57;0.30;;;;;;;13.22;100.00;98243.55;1678086;83;22437;-47
2022/10/03 12:44:12;;;;;;;1.80;0.20;;;;;;;13.18;100.00;98238.88;1697259;82;22447;-46
2022/10/03 12:46:50;;;;;;;4.12;0.20;;;;;;;13.18;100.00;98237.53;1673787;82;21066;-50
2022/10/03 12:49:31;;;;;;;1.17;0.20;;;;;;;13.12;100.00;98235.31;1669624;83;21148;-47
2022/10/03 12:51:59;;;;;;;0.95;0.28;;;;;;;13.09;100.00;98226.63;1682020;82;21067;-49
2022/10/03 12:54:47;;;;;;;0.60;0.20;;;;;;;13.08;100.00;98235.22;1681793;83;21801;-46
2022/10/03 12:57:54;;;;;;;0.40;0.20;;;;;;;13.10;100.00;98231.05;1665564;83;21235;-47
2022/10/03 13:00:48;;;;;;;1.22;0.20;;;;;;;13.12;100.00;98231.75;1611223;83;21179;-46
2022/10/03 13:03:37;;;;;;;0.60;0.20;;;;;;;13.13;100.00;98238.41;1666957;83;22256;-49
2022/10/03 13:06:34;;;;;;;0.35;0.20;;;;;;;13.16;100.00;98237.31;1665342;83;21138;-46
2022/10/03 13:09:19;;;;;;;0.40;0.20;;;;;;;13.19;100.00;98239.73;1666040;83;21771;-48
2022/10/03 13:12:06;;;;;;;2.35;0.10;;;;;;;13.23;100.00;98232.63;1661963;84;21125;-47
2022/10/03 13:15:05;;;;;;;0.27;0.20;;;;;;;13.23;100.00;98225.87;1679121;83;21063;-48
2022/10/03 13:17:51;;;;;;;0.42;0.20;;;;;;;13.23;100.00;98236.67;1682382;83;21074;-46
2022/10/03 13:20:32;;;;;;;0.85;0.20;;;;;;;13.19;100.00;98235.20;1681931;83;27669;-48
2022/10/03 13:23:13;;;;;;;0.70;0.20;;;;;;;13.08;100.00;98237.05;1676633;83;22513;-47
2022/10/03 13:25:48;;;;;;;2.15;0.20;;;;;;;13.04;100.00;98239.63;1683251;83;21077;-49
2022/10/03 13:28:34;;;;;;;2.80;0.20;;;;;;;12.97;100.00;98236.58;1675625;83;21073;-46
2022/10/03 13:31:17;;;;;;;1.47;0.28;;;;;;;12.97;100.00;98238.41;1673366;83;21069;-47
2022/10/03 13:33:47;;;;;;;0.68;0.20;;;;;;;12.98;100.00;98232.90;1678780;83;21081;-49
2022/10/03 13:36:28;;;;;;;2.33;0.20;;;;;;;13.01;100.00;98227.75;1678292;83;21814;-49
2022/10/03 13:39:15;;;;;;;1.85;0.20;;;;;;;13.04;100.00;98235.08;1676965;83;21026;-48
2022/10/03 13:41:58;;;;;;;0.28;0.20;;;;;;;13.07;100.00;98233.98;1679653;83;21018;-46
2022/10/03 13:44:37;;;;;;;0.40;0.10;;;;;;;13.06;100.00;98239.02;1682587;83;21717;-50
2022/10/03 13:47:18;;;;;;;0.30;0.20;;;;;;;13.03;100.00;98231.16;1673069;83;21091;-49